createdAt,value
2018-08-30T00:01:28.635Z,11.17
2018-08-30T00:04:00.095Z,11.43
2018-08-30T00:06:31.820Z,10.33
2018-08-30T00:09:03.344Z,10.40
2018-08-30T00:11:34.909Z,10.10
2018-08-30T00:14:06.363Z,9.07
2018-08-30T00:16:37.631Z,9.47
2018-08-30T00:19:08.854Z,9.57
2018-08-30T00:21:40.424Z,11.03
2018-08-30T00:24:12.710Z,10.60
2018-08-30T00:26:44.068Z,12.40
2018-08-30T00:29:15.561Z,12.53
2018-08-30T00:31:47.119Z,16.70
2018-08-30T00:34:18.770Z,10.10
2018-08-30T00:36:50.168Z,12.83
2018-08-30T00:39:21.521Z,11.93
2018-08-30T00:41:53.001Z,13.27
2018-08-30T00:44:24.092Z,10.50
2018-08-30T00:46:55.154Z,12.40
2018-08-30T00:49:26.589Z,10.93
2018-08-30T00:51:57.987Z,10.07
2018-08-30T00:54:29.295Z,10.47
2018-08-30T00:57:00.542Z,9.53
2018-08-30T00:59:31.795Z,10.80
2018-08-30T01:02:03.148Z,10.30
2018-08-30T01:04:34.637Z,10.90
2018-08-30T01:07:06.536Z,10.67
2018-08-30T01:09:38.012Z,10.57
2018-08-30T01:12:09.200Z,9.53
2018-08-30T01:14:40.687Z,9.27
2018-08-30T01:17:12.432Z,11.57
2018-08-30T01:19:43.801Z,12.03
2018-08-30T01:22:15.147Z,10.30
2018-08-30T01:24:47.387Z,10.13
2018-08-30T01:27:18.776Z,11.57
2018-08-30T01:29:50.163Z,11.13
2018-08-30T01:32:21.468Z,10.97
2018-08-30T01:34:52.996Z,11.90
2018-08-30T01:37:24.595Z,11.17
2018-08-30T01:39:55.981Z,14.27
2018-08-30T01:42:27.272Z,11.10
2018-08-30T01:44:58.812Z,10.87
2018-08-30T01:47:30.177Z,9.70
2018-08-30T01:50:01.175Z,13.70
2018-08-30T01:52:32.642Z,10.10
2018-08-30T01:55:03.916Z,12.63
2018-08-30T01:57:35.385Z,15.00
2018-08-30T02:00:06.743Z,10.53
2018-08-30T02:02:38.188Z,11.10
2018-08-30T02:05:09.785Z,11.73
2018-08-30T02:07:41.173Z,11.30
2018-08-30T02:10:12.693Z,12.03
2018-08-30T02:12:45.041Z,12.90
2018-08-30T02:15:16.441Z,13.70
2018-08-30T02:17:47.655Z,17.60
2018-08-30T02:20:18.871Z,9.87
2018-08-30T02:22:50.124Z,14.30
2018-08-30T02:25:21.509Z,12.83
2018-08-30T02:27:52.923Z,10.63
2018-08-30T02:30:24.538Z,11.40
2018-08-30T02:32:55.664Z,11.93
2018-08-30T02:35:27.221Z,11.53
2018-08-30T02:37:58.655Z,11.87
2018-08-30T02:40:30.399Z,14.33
2018-08-30T02:43:01.718Z,10.33
2018-08-30T02:45:33.312Z,14.70
2018-08-30T02:48:05.007Z,13.67
2018-08-30T02:50:36.276Z,11.73
2018-08-30T02:53:07.764Z,11.60
2018-08-30T02:55:39.207Z,12.10
2018-08-30T02:58:10.998Z,9.70
2018-08-30T03:00:42.220Z,11.30
2018-08-30T03:03:13.463Z,13.17
2018-08-30T03:05:45.074Z,14.10
2018-08-30T03:08:16.352Z,12.97
2018-08-30T03:10:47.719Z,11.23
2018-08-30T03:13:18.897Z,11.10
2018-08-30T03:15:50.731Z,11.33
2018-08-30T03:18:22.172Z,12.67
2018-08-30T03:20:53.612Z,13.73
2018-08-30T03:23:24.663Z,13.47
2018-08-30T03:25:56.145Z,11.17
2018-08-30T03:28:27.753Z,10.13
2018-08-30T03:30:59.366Z,10.97
2018-08-30T03:33:30.565Z,14.17
2018-08-30T03:36:01.800Z,10.53
2018-08-30T03:38:33.103Z,11.73
2018-08-30T03:41:04.942Z,10.70
2018-08-30T03:43:36.181Z,10.27
2018-08-30T03:46:07.687Z,11.80
2018-08-30T03:48:39.360Z,12.37
2018-08-30T03:51:10.701Z,10.47
2018-08-30T03:53:41.879Z,12.33
2018-08-30T03:56:13.406Z,11.63
2018-08-30T03:58:44.769Z,10.17
2018-08-30T04:01:16.164Z,12.47
2018-08-30T04:03:47.749Z,10.60
2018-08-30T04:06:19.041Z,12.50
2018-08-30T04:08:50.511Z,10.07
2018-08-30T04:11:21.839Z,10.87
2018-08-30T04:13:53.204Z,10.40
2018-08-30T04:16:24.429Z,11.50
2018-08-30T04:19:05.680Z,10.60
2018-08-30T04:21:37.374Z,11.67
2018-08-30T04:24:09.624Z,13.93
2018-08-30T04:26:41.228Z,11.20
2018-08-30T04:29:12.784Z,11.57
2018-08-30T04:31:43.964Z,11.07
2018-08-30T04:34:15.319Z,12.47
2018-08-30T04:36:46.797Z,14.43
2018-08-30T04:39:18.464Z,14.13
2018-08-30T04:41:49.665Z,13.97
2018-08-30T04:44:21.014Z,9.53
2018-08-30T04:46:52.624Z,12.40
2018-08-30T04:49:23.934Z,13.73
2018-08-30T04:51:55.273Z,15.77
2018-08-30T04:54:26.498Z,10.13
2018-08-30T04:57:00.841Z,12.63
2018-08-30T04:59:32.986Z,14.97
2018-08-30T05:02:04.480Z,17.20
2018-08-30T05:04:35.882Z,15.00
2018-08-30T05:07:07.333Z,12.93
2018-08-30T05:09:38.535Z,19.07
2018-08-30T05:12:10.132Z,17.77
2018-08-30T05:14:41.472Z,14.07
2018-08-30T05:17:12.997Z,16.60
2018-08-30T05:19:44.369Z,18.73
2018-08-30T05:22:15.746Z,16.47
2018-08-30T05:24:47.348Z,17.07
2018-08-30T05:27:18.543Z,23.57
2018-08-30T05:29:50.181Z,29.23
2018-08-30T05:32:21.444Z,27.00
2018-08-30T05:34:53.002Z,25.72
2018-08-30T05:37:24.376Z,77.72
2018-08-30T05:39:56.633Z,163.35
2018-08-30T05:42:28.153Z,124.50
2018-08-30T05:44:59.528Z,72.27
2018-08-30T05:47:30.880Z,41.42
2018-08-30T05:50:02.391Z,26.10
2018-08-30T05:52:34.746Z,25.95
2018-08-30T05:55:06.472Z,14.30
2018-08-30T05:57:37.798Z,14.23
2018-08-30T06:00:09.420Z,17.17
2018-08-30T06:02:40.712Z,16.30
2018-08-30T06:05:12.355Z,26.05
2018-08-30T06:07:43.677Z,46.68
2018-08-30T06:10:14.980Z,26.35
2018-08-30T06:12:46.652Z,22.02
2018-08-30T06:15:17.951Z,21.50
2018-08-30T06:17:49.327Z,16.85
2018-08-30T06:20:20.572Z,14.70
2018-08-30T06:22:52.334Z,19.12
2018-08-30T06:25:23.888Z,17.05
2018-08-30T06:27:55.053Z,19.50
2018-08-30T06:30:26.453Z,19.27
2018-08-30T06:32:57.990Z,18.15
2018-08-30T06:35:29.416Z,16.15
2018-08-30T06:38:01.160Z,20.02
2018-08-30T06:40:32.853Z,14.58
2018-08-30T06:43:04.379Z,13.88
2018-08-30T06:45:35.888Z,17.87
2018-08-30T06:48:07.171Z,16.05
2018-08-30T06:50:38.939Z,13.55
2018-08-30T06:53:10.620Z,14.80
2018-08-30T06:55:42.096Z,15.32
2018-08-30T06:58:13.535Z,17.27
2018-08-30T07:00:44.964Z,21.23
2018-08-30T07:03:16.232Z,17.32
2018-08-30T07:05:47.960Z,17.57
2018-08-30T07:08:19.397Z,13.62
2018-08-30T07:10:50.683Z,13.85
2018-08-30T07:13:22.030Z,17.77
2018-08-30T07:15:53.421Z,12.37
2018-08-30T07:18:25.104Z,14.03
2018-08-30T07:20:56.494Z,14.25
2018-08-30T07:23:27.900Z,13.72
2018-08-30T07:25:59.402Z,13.75
2018-08-30T07:28:30.803Z,12.60
2018-08-30T07:31:02.396Z,17.75
2018-08-30T07:33:33.928Z,15.20
2018-08-30T07:36:05.349Z,12.58
2018-08-30T07:38:36.584Z,12.07
2018-08-30T07:41:08.118Z,14.38
2018-08-30T07:43:39.434Z,13.00
2018-08-30T07:46:10.556Z,13.00
2018-08-30T07:48:42.129Z,10.88
2018-08-30T07:51:13.377Z,11.80
2018-08-30T07:53:45.140Z,12.75
2018-08-30T07:56:16.589Z,11.22
2018-08-30T07:58:47.910Z,14.85
2018-08-30T08:01:19.401Z,12.40
2018-08-30T08:03:50.712Z,16.02
2018-08-30T08:06:22.405Z,15.75
2018-08-30T08:08:53.824Z,13.08
2018-08-30T08:11:25.394Z,14.23
2018-08-30T08:13:56.905Z,17.48
2018-08-30T08:16:29.096Z,15.40
2018-08-30T08:19:01.069Z,14.30
2018-08-30T08:21:32.904Z,14.93
2018-08-30T08:24:04.613Z,13.78
2018-08-30T08:26:35.934Z,19.37
2018-08-30T08:29:07.704Z,15.20
2018-08-30T08:31:38.805Z,16.30
2018-08-30T08:34:10.342Z,18.57
2018-08-30T08:36:41.804Z,13.08
2018-08-30T08:39:13.201Z,14.15
2018-08-30T08:41:44.836Z,11.78
2018-08-30T08:44:16.668Z,13.58
2018-08-30T08:46:48.056Z,13.98
2018-08-30T08:49:19.854Z,18.00
2018-08-30T08:51:51.500Z,20.05
2018-08-30T08:54:22.823Z,21.73
2018-08-30T08:56:55.045Z,22.58
2018-08-30T08:59:26.416Z,20.12
2018-08-30T09:01:57.816Z,20.37
2018-08-30T09:04:29.587Z,18.30
2018-08-30T09:07:01.027Z,14.40
2018-08-30T09:09:32.585Z,9.20
2018-08-30T09:12:03.837Z,6.08
2018-08-30T09:14:35.297Z,3.37
2018-08-30T09:17:06.746Z,3.95
2018-08-30T09:19:38.032Z,3.55
2018-08-30T09:22:09.496Z,3.02
2018-08-30T09:24:40.809Z,3.98
2018-08-30T09:27:12.373Z,6.70
2018-08-30T09:29:43.764Z,2.62
2018-08-30T09:32:15.077Z,4.00
2018-08-30T09:34:46.756Z,2.85
2018-08-30T09:37:18.025Z,7.45
2018-08-30T09:39:49.235Z,2.20
2018-08-30T09:42:20.828Z,2.47
2018-08-30T09:44:52.109Z,2.65
2018-08-30T09:47:23.271Z,3.77
2018-08-30T09:49:54.624Z,2.08
2018-08-30T09:52:25.890Z,3.27
2018-08-30T09:54:57.111Z,3.10
2018-08-30T09:57:28.596Z,3.47
2018-08-30T10:00:00.268Z,1.85
2018-08-30T10:02:34.702Z,2.25
2018-08-30T10:05:06.262Z,3.47
2018-08-30T10:07:37.760Z,3.80
2018-08-30T10:10:09.248Z,2.52
2018-08-30T10:12:40.748Z,3.75
2018-08-30T10:15:12.323Z,2.47
2018-08-30T10:17:43.452Z,2.95
2018-08-30T10:20:14.792Z,3.50
2018-08-30T10:22:46.150Z,3.70
2018-08-30T10:25:17.553Z,2.37
2018-08-30T10:27:49.074Z,3.70
2018-08-30T10:30:20.445Z,3.58
2018-08-30T10:32:51.681Z,5.72
2018-08-30T10:35:23.468Z,7.28
2018-08-30T10:37:54.738Z,4.45
2018-08-30T10:40:25.950Z,2.22
2018-08-30T10:42:57.436Z,5.20
2018-08-30T10:45:28.759Z,2.52
2018-08-30T10:48:00.054Z,4.87
2018-08-30T10:50:31.357Z,3.37
2018-08-30T10:53:02.750Z,2.30
2018-08-30T10:55:34.266Z,5.20
2018-08-30T10:58:05.637Z,4.10
2018-08-30T11:00:38.239Z,4.10
2018-08-30T11:03:09.663Z,3.45
2018-08-30T11:05:41.202Z,5.40
2018-08-30T11:08:12.624Z,10.35
2018-08-30T11:10:43.996Z,3.87
2018-08-30T11:13:15.541Z,3.65
2018-08-30T11:15:46.828Z,3.50
2018-08-30T11:18:17.992Z,3.00
2018-08-30T11:20:49.448Z,1.77
2018-08-30T11:23:20.824Z,2.10
2018-08-30T11:25:52.296Z,2.20
2018-08-30T11:28:23.654Z,2.12
2018-08-30T11:30:55.171Z,2.25
2018-08-30T11:33:26.442Z,2.00
2018-08-30T11:35:57.786Z,2.15
2018-08-30T11:38:29.226Z,3.27
2018-08-30T11:41:00.818Z,2.70
2018-08-30T11:43:32.381Z,2.22
2018-08-30T11:46:04.421Z,4.08
2018-08-30T11:48:35.770Z,2.22
2018-08-30T11:51:08.019Z,4.72
2018-08-30T11:53:39.324Z,1.75
2018-08-30T11:56:10.970Z,1.98
2018-08-30T11:58:42.447Z,2.67
2018-08-30T12:01:14.052Z,3.12
2018-08-30T12:03:47.429Z,2.37
2018-08-30T12:06:19.412Z,2.80
2018-08-30T12:08:50.904Z,1.80
2018-08-30T12:11:22.549Z,1.45
2018-08-30T12:13:54.053Z,2.58
2018-08-30T12:16:25.765Z,5.58
2018-08-30T12:18:57.294Z,1.17
2018-08-30T12:21:29.009Z,2.02
2018-08-30T12:24:00.155Z,1.75
2018-08-30T12:26:31.687Z,1.82
2018-08-30T12:29:03.060Z,1.87
2018-08-30T12:31:34.708Z,2.15
2018-08-30T12:34:06.256Z,2.83
2018-08-30T12:36:38.106Z,4.87
2018-08-30T12:39:12.586Z,1.60
2018-08-30T12:41:44.150Z,5.83
2018-08-30T12:44:15.752Z,1.87
2018-08-30T12:46:47.487Z,3.58
2018-08-30T12:49:18.982Z,1.92
2018-08-30T12:51:50.552Z,2.35
2018-08-30T12:54:22.002Z,4.58
2018-08-30T12:56:53.593Z,2.90
2018-08-30T12:59:30.074Z,3.90
2018-08-30T13:02:01.586Z,2.83
2018-08-30T13:04:33.102Z,2.37
2018-08-30T13:07:04.736Z,1.45
2018-08-30T13:09:36.300Z,2.67
2018-08-30T13:12:08.197Z,2.30
2018-08-30T13:14:39.510Z,4.17
2018-08-30T13:17:10.680Z,1.72
2018-08-30T13:19:42.205Z,3.52
2018-08-30T13:22:14.016Z,3.15
2018-08-30T13:24:45.355Z,1.40
2018-08-30T13:27:17.084Z,2.47
2018-08-30T13:29:48.684Z,3.25
2018-08-30T13:32:20.456Z,2.83
2018-08-30T13:34:52.154Z,1.30
2018-08-30T13:37:23.650Z,5.55
2018-08-30T13:39:55.294Z,1.72
2018-08-30T13:42:26.776Z,2.08
2018-08-30T13:44:58.251Z,2.85
2018-08-30T13:47:29.545Z,2.00
2018-08-30T13:50:01.445Z,2.47
2018-08-30T13:52:33.129Z,1.98
2018-08-30T13:55:04.313Z,2.08
2018-08-30T13:57:35.950Z,2.00
2018-08-30T14:00:07.834Z,2.42
2018-08-30T14:02:38.820Z,3.45
2018-08-30T14:05:10.469Z,2.83
2018-08-30T14:07:42.212Z,3.05
2018-08-30T14:10:13.398Z,4.92
2018-08-30T14:12:44.391Z,3.87
2018-08-30T14:15:15.938Z,3.67
2018-08-30T14:17:47.112Z,2.15
2018-08-30T14:20:18.532Z,1.82
2018-08-30T14:22:49.822Z,2.45
2018-08-30T14:25:21.402Z,1.60
2018-08-30T14:27:52.808Z,2.47
2018-08-30T14:30:24.159Z,3.80
2018-08-30T14:32:55.712Z,2.52
2018-08-30T14:35:27.399Z,2.83
2018-08-30T14:37:58.595Z,2.60
2018-08-30T14:40:29.802Z,2.92
2018-08-30T14:43:01.165Z,14.58
2018-08-30T14:45:32.408Z,5.28
2018-08-30T14:48:03.964Z,2.00
2018-08-30T14:50:35.519Z,2.67
2018-08-30T14:53:06.920Z,2.12
2018-08-30T14:55:38.300Z,1.87
2018-08-30T14:58:10.029Z,4.90
2018-08-30T15:00:41.202Z,1.90
2018-08-30T15:03:12.589Z,4.45
2018-08-30T15:05:44.164Z,6.08
2018-08-30T15:08:15.321Z,5.80
2018-08-30T15:10:46.831Z,3.15
2018-08-30T15:13:18.353Z,2.72
2018-08-30T15:15:50.259Z,3.05
2018-08-30T15:18:21.747Z,2.20
2018-08-30T15:20:52.914Z,3.98
2018-08-30T15:23:24.512Z,4.33
2018-08-30T15:25:55.832Z,5.50
2018-08-30T15:28:27.313Z,4.55
2018-08-30T15:30:58.396Z,7.87
2018-08-30T15:33:29.889Z,8.30
2018-08-30T15:36:01.169Z,10.28
2018-08-30T15:38:32.602Z,4.45
2018-08-30T15:41:04.051Z,11.35
2018-08-30T15:43:35.480Z,3.12
2018-08-30T15:46:07.041Z,6.10
2018-08-30T15:48:38.479Z,5.42
2018-08-30T15:51:09.826Z,7.87
2018-08-30T15:53:41.418Z,9.70
2018-08-30T15:56:13.008Z,8.40
2018-08-30T15:58:44.616Z,10.40
2018-08-30T16:01:16.421Z,13.18
2018-08-30T16:03:47.811Z,4.58
2018-08-30T16:06:19.416Z,4.28
2018-08-30T16:08:51.047Z,5.08
2018-08-30T16:11:22.758Z,5.45
2018-08-30T16:13:54.268Z,7.17
2018-08-30T16:16:26.062Z,8.03
2018-08-30T16:18:57.719Z,4.47
2018-08-30T16:21:29.303Z,5.30
2018-08-30T16:24:00.949Z,7.95
2018-08-30T16:26:32.513Z,5.47
2018-08-30T16:29:04.104Z,4.75
2018-08-30T16:31:35.526Z,20.43
2018-08-30T16:34:07.332Z,6.70
2018-08-30T16:36:42.738Z,16.95
2018-08-30T16:39:14.343Z,7.45
2018-08-30T16:41:46.173Z,7.45
2018-08-30T16:44:17.710Z,8.25
2018-08-30T16:46:49.039Z,7.37
2018-08-30T16:49:20.510Z,6.83
2018-08-30T16:51:51.999Z,5.83
2018-08-30T16:54:23.424Z,6.00
2018-08-30T16:56:54.931Z,8.53
2018-08-30T16:59:26.296Z,7.03
2018-08-30T17:01:57.809Z,7.25
2018-08-30T17:04:29.217Z,6.33
2018-08-30T17:07:00.843Z,8.03
2018-08-30T17:09:32.425Z,5.87
2018-08-30T17:12:03.972Z,8.28
2018-08-30T17:14:35.606Z,5.75
2018-08-30T17:17:07.582Z,4.30
2018-08-30T17:19:39.132Z,6.30
2018-08-30T17:22:10.464Z,4.10
2018-08-30T17:24:42.257Z,5.37
2018-08-30T17:27:14.054Z,9.95
2018-08-30T17:29:45.947Z,12.47
2018-08-30T17:32:18.015Z,4.53
2018-08-30T17:34:49.280Z,6.80
2018-08-30T17:37:20.838Z,5.78
2018-08-30T17:39:52.292Z,6.87
2018-08-30T17:42:24.697Z,7.60
2018-08-30T17:44:56.281Z,6.80
2018-08-30T17:47:27.728Z,5.37
2018-08-30T17:49:59.103Z,9.58
2018-08-30T17:52:30.525Z,11.08
2018-08-30T17:55:02.867Z,10.18
2018-08-30T17:57:34.570Z,6.35
2018-08-30T18:00:08.611Z,5.58
2018-08-30T18:02:40.735Z,7.12
2018-08-30T18:05:12.764Z,5.28
2018-08-30T18:07:44.505Z,8.88
2018-08-30T18:10:16.268Z,5.28
2018-08-30T18:12:47.818Z,6.75
2018-08-30T18:15:19.291Z,8.93
2018-08-30T18:17:50.687Z,8.85
2018-08-30T18:20:22.799Z,7.00
2018-08-30T18:22:55.045Z,5.65
2018-08-30T18:25:27.312Z,7.05
2018-08-30T18:27:59.072Z,6.03
2018-08-30T18:30:30.688Z,5.53
2018-08-30T18:33:02.240Z,8.83
2018-08-30T18:35:34.093Z,5.42
2018-08-30T18:38:05.789Z,7.00
2018-08-30T18:40:38.095Z,6.55
2018-08-30T18:43:09.857Z,6.53
2018-08-30T18:45:41.495Z,5.70
2018-08-30T18:48:13.434Z,6.20
2018-08-30T18:50:45.028Z,5.95
2018-08-30T18:53:16.462Z,6.63
2018-08-30T18:55:48.045Z,6.53
2018-08-30T18:58:19.637Z,11.00
2018-08-30T19:00:51.258Z,14.40
2018-08-30T19:03:23.119Z,6.97
2018-08-30T19:05:55.613Z,7.10
2018-08-30T19:08:27.954Z,6.87
2018-08-30T19:10:59.812Z,7.10
2018-08-30T19:13:31.552Z,7.10
2018-08-30T19:16:08.218Z,7.83
2018-08-30T19:18:44.951Z,7.33
2018-08-30T19:21:16.540Z,6.70
2018-08-30T19:23:48.815Z,6.67
2018-08-30T19:26:20.209Z,6.50
2018-08-30T19:28:52.397Z,13.08
2018-08-30T19:31:23.809Z,7.33
2018-08-30T19:33:55.709Z,8.60
2018-08-30T19:36:30.429Z,17.93
2018-08-30T19:39:03.189Z,7.37
2018-08-30T19:41:34.978Z,7.50
2018-08-30T19:44:06.666Z,6.80
2018-08-30T19:46:38.034Z,6.10
2018-08-30T19:49:09.466Z,6.20
2018-08-30T19:51:41.290Z,6.47
2018-08-30T19:54:13.237Z,5.90
2018-08-30T19:56:44.850Z,6.00
2018-08-30T19:59:17.136Z,5.77
2018-08-30T20:01:48.512Z,7.00
2018-08-30T20:04:20.024Z,6.87
2018-08-30T20:06:52.223Z,7.33
2018-08-30T20:09:23.999Z,8.87
2018-08-30T20:11:55.669Z,7.90
2018-08-30T20:14:27.614Z,7.90
2018-08-30T20:16:59.786Z,8.90
2018-08-30T20:19:31.915Z,7.37
2018-08-30T20:22:03.792Z,6.37
2018-08-30T20:24:36.120Z,6.07
2018-08-30T20:27:08.097Z,6.17
2018-08-30T20:29:39.650Z,5.93
2018-08-30T20:32:11.772Z,7.27
2018-08-30T20:34:43.969Z,15.63
2018-08-30T20:37:15.490Z,6.30
2018-08-30T20:39:48.032Z,6.27
2018-08-30T20:42:20.365Z,5.50
2018-08-30T20:44:51.945Z,6.83
2018-08-30T20:47:24.929Z,6.23
2018-08-30T20:49:56.901Z,6.40
2018-08-30T20:52:28.959Z,6.47
2018-08-30T20:55:00.673Z,5.97
2018-08-30T20:57:32.049Z,8.40
2018-08-30T21:00:03.776Z,22.83
2018-08-30T21:02:35.554Z,7.03
2018-08-30T21:05:07.149Z,7.70
2018-08-30T21:07:38.587Z,7.77
2018-08-30T21:10:10.460Z,9.20
2018-08-30T21:12:42.222Z,10.67
2018-08-30T21:15:14.808Z,9.63
2018-08-30T21:17:47.064Z,10.50
2018-08-30T21:20:18.818Z,16.03
2018-08-30T21:22:50.657Z,8.93
2018-08-30T21:25:22.024Z,9.27
2018-08-30T21:27:53.656Z,10.03
2018-08-30T21:30:25.655Z,8.67
2018-08-30T21:32:57.457Z,9.50
2018-08-30T21:35:29.116Z,10.40
2018-08-30T21:38:01.106Z,9.93
2018-08-30T21:40:34.659Z,10.53
2018-08-30T21:43:06.249Z,9.97
2018-08-30T21:45:38.439Z,9.37
2018-08-30T21:48:10.901Z,8.80
2018-08-30T21:50:42.947Z,8.20
2018-08-30T21:53:14.894Z,8.47
2018-08-30T21:55:46.665Z,8.20
2018-08-30T21:58:18.613Z,7.40
2018-08-30T22:00:51.251Z,7.33
2018-08-30T22:03:23.472Z,7.50
2018-08-30T22:05:55.089Z,10.30
2018-08-30T22:08:26.510Z,7.33
2018-08-30T22:10:58.307Z,9.93
2018-08-30T22:13:30.406Z,7.80
2018-08-30T22:16:02.244Z,8.20
2018-08-30T22:18:33.841Z,7.80
2018-08-30T22:21:06.227Z,7.97
2018-08-30T22:23:40.713Z,8.30
2018-08-30T22:26:12.443Z,9.93
2018-08-30T22:28:44.097Z,7.97
2018-08-30T22:31:15.918Z,8.47
2018-08-30T22:33:47.656Z,9.03
2018-08-30T22:36:19.128Z,8.67
2018-08-30T22:38:51.408Z,8.37
2018-08-30T22:41:23.268Z,8.60
2018-08-30T22:43:55.048Z,9.03
2018-08-30T22:46:26.760Z,8.47
2018-08-30T22:48:58.470Z,8.60
2018-08-30T22:51:30.160Z,7.90
2018-08-30T22:54:01.888Z,9.47
2018-08-30T22:56:33.438Z,9.40
2018-08-30T22:59:04.797Z,8.77
2018-08-30T23:01:36.613Z,9.77
2018-08-30T23:04:08.078Z,9.93
2018-08-30T23:06:39.614Z,9.20
2018-08-30T23:09:11.774Z,10.03
2018-08-30T23:11:43.410Z,10.43
2018-08-30T23:14:14.930Z,10.77
2018-08-30T23:16:46.768Z,10.27
2018-08-30T23:19:18.200Z,10.87
2018-08-30T23:21:49.621Z,10.73
2018-08-30T23:24:21.048Z,11.20
2018-08-30T23:26:52.709Z,10.40
2018-08-30T23:29:24.341Z,11.80
2018-08-30T23:31:55.755Z,10.87
2018-08-30T23:34:27.613Z,10.47
2018-08-30T23:36:59.124Z,11.57
2018-08-30T23:39:30.657Z,11.67
2018-08-30T23:42:02.152Z,10.77
2018-08-30T23:44:33.864Z,11.23
2018-08-30T23:47:05.288Z,12.33
2018-08-30T23:49:36.759Z,12.57
2018-08-30T23:52:08.747Z,11.17
2018-08-30T23:54:40.363Z,10.80
2018-08-30T23:57:12.060Z,10.43
